sensor_id;sensor_type;location;lat;lon;timestamp;P1;durP1;ratioP1;P2;durP2;ratioP2
66189;SDS011;52992;52.084;5.412;2024-03-25T00:00:39;15.53;;;3.60;;
66189;SDS011;52992;52.084;5.412;2024-03-25T00:03:05;12.03;;;3.07;;
66189;SDS011;52992;52.084;5.412;2024-03-25T00:05:31;14.33;;;3.10;;
66189;SDS011;52992;52.084;5.412;2024-03-25T00:07:57;16.33;;;2.90;;
66189;SDS011;52992;52.084;5.412;2024-03-25T00:10:24;8.17;;;2.70;;
66189;SDS011;52992;52.084;5.412;2024-03-25T00:12:50;16.17;;;3.27;;
66189;SDS011;52992;52.084;5.412;2024-03-25T00:15:21;10.33;;;3.00;;
66189;SDS011;52992;52.084;5.412;2024-03-25T00:17:49;13.93;;;3.13;;
66189;SDS011;52992;52.084;5.412;2024-03-25T00:20:15;10.03;;;2.87;;
66189;SDS011;52992;52.084;5.412;2024-03-25T00:22:41;12.10;;;2.93;;
66189;SDS011;52992;52.084;5.412;2024-03-25T00:25:07;14.97;;;3.73;;
66189;SDS011;52992;52.084;5.412;2024-03-25T00:27:34;11.80;;;3.10;;
66189;SDS011;52992;52.084;5.412;2024-03-25T00:30:00;13.93;;;3.60;;
66189;SDS011;52992;52.084;5.412;2024-03-25T00:32:26;9.73;;;2.70;;
66189;SDS011;52992;52.084;5.412;2024-03-25T00:34:52;13.10;;;3.20;;
66189;SDS011;52992;52.084;5.412;2024-03-25T00:37:18;13.27;;;3.00;;
66189;SDS011;52992;52.084;5.412;2024-03-25T00:39:44;15.00;;;3.83;;
66189;SDS011;52992;52.084;5.412;2024-03-25T00:42:10;12.07;;;3.10;;
66189;SDS011;52992;52.084;5.412;2024-03-25T00:44:37;17.83;;;3.40;;
66189;SDS011;52992;52.084;5.412;2024-03-25T00:47:03;9.33;;;3.03;;
66189;SDS011;52992;52.084;5.412;2024-03-25T00:49:29;15.50;;;3.50;;
66189;SDS011;52992;52.084;5.412;2024-03-25T00:51:55;14.13;;;2.97;;
66189;SDS011;52992;52.084;5.412;2024-03-25T00:54:21;16.20;;;3.53;;
66189;SDS011;52992;52.084;5.412;2024-03-25T00:56:48;15.33;;;3.23;;
66189;SDS011;52992;52.084;5.412;2024-03-25T00:59:17;15.07;;;3.00;;
66189;SDS011;52992;52.084;5.412;2024-03-25T01:01:43;17.80;;;3.17;;
66189;SDS011;52992;52.084;5.412;2024-03-25T01:04:08;12.63;;;2.57;;
66189;SDS011;52992;52.084;5.412;2024-03-25T01:06:34;15.50;;;3.40;;
66189;SDS011;52992;52.084;5.412;2024-03-25T01:09:00;11.77;;;2.70;;
66189;SDS011;52992;52.084;5.412;2024-03-25T01:11:26;21.70;;;3.30;;
66189;SDS011;52992;52.084;5.412;2024-03-25T01:13:52;11.60;;;3.40;;
66189;SDS011;52992;52.084;5.412;2024-03-25T01:16:18;16.20;;;3.17;;
66189;SDS011;52992;52.084;5.412;2024-03-25T01:18:44;12.93;;;3.30;;
66189;SDS011;52992;52.084;5.412;2024-03-25T01:21:10;12.37;;;3.10;;
66189;SDS011;52992;52.084;5.412;2024-03-25T01:23:36;12.00;;;3.17;;
66189;SDS011;52992;52.084;5.412;2024-03-25T01:26:02;11.50;;;3.37;;
66189;SDS011;52992;52.084;5.412;2024-03-25T01:28:28;20.40;;;4.27;;
66189;SDS011;52992;52.084;5.412;2024-03-25T01:30:53;15.90;;;3.60;;
66189;SDS011;52992;52.084;5.412;2024-03-25T01:33:19;17.67;;;3.33;;
66189;SDS011;52992;52.084;5.412;2024-03-25T01:35:45;16.17;;;3.60;;
66189;SDS011;52992;52.084;5.412;2024-03-25T01:38:11;11.13;;;3.50;;
66189;SDS011;52992;52.084;5.412;2024-03-25T01:40:38;9.90;;;3.00;;
66189;SDS011;52992;52.084;5.412;2024-03-25T01:43:04;24.50;;;3.50;;
66189;SDS011;52992;52.084;5.412;2024-03-25T01:45:31;17.03;;;3.20;;
66189;SDS011;52992;52.084;5.412;2024-03-25T01:47:59;15.87;;;3.10;;
66189;SDS011;52992;52.084;5.412;2024-03-25T01:50:28;22.37;;;3.47;;
66189;SDS011;52992;52.084;5.412;2024-03-25T01:52:56;14.70;;;3.37;;
66189;SDS011;52992;52.084;5.412;2024-03-25T01:55:23;18.23;;;3.77;;
66189;SDS011;52992;52.084;5.412;2024-03-25T01:57:51;13.83;;;3.33;;
66189;SDS011;52992;52.084;5.412;2024-03-25T02:00:17;11.03;;;3.73;;
66189;SDS011;52992;52.084;5.412;2024-03-25T02:02:48;12.07;;;3.47;;
66189;SDS011;52992;52.084;5.412;2024-03-25T02:05:15;22.37;;;3.43;;
66189;SDS011;52992;52.084;5.412;2024-03-25T02:07:41;17.83;;;3.40;;
66189;SDS011;52992;52.084;5.412;2024-03-25T02:10:08;17.57;;;4.33;;
66189;SDS011;52992;52.084;5.412;2024-03-25T02:12:41;14.43;;;2.87;;
66189;SDS011;52992;52.084;5.412;2024-03-25T02:15:08;15.33;;;3.63;;
66189;SDS011;52992;52.084;5.412;2024-03-25T02:17:35;18.03;;;3.10;;
66189;SDS011;52992;52.084;5.412;2024-03-25T02:20:01;14.47;;;3.43;;
66189;SDS011;52992;52.084;5.412;2024-03-25T02:22:28;11.10;;;3.20;;
66189;SDS011;52992;52.084;5.412;2024-03-25T02:24:56;18.27;;;3.57;;
66189;SDS011;52992;52.084;5.412;2024-03-25T02:27:26;16.73;;;3.60;;
66189;SDS011;52992;52.084;5.412;2024-03-25T02:30:06;22.43;;;3.40;;
66189;SDS011;52992;52.084;5.412;2024-03-25T02:32:34;19.40;;;3.60;;
66189;SDS011;52992;52.084;5.412;2024-03-25T02:35:01;16.03;;;4.37;;
66189;SDS011;52992;52.084;5.412;2024-03-25T02:37:29;13.97;;;4.27;;
66189;SDS011;52992;52.084;5.412;2024-03-25T02:39:57;12.90;;;4.00;;
66189;SDS011;52992;52.084;5.412;2024-03-25T02:42:24;13.47;;;3.60;;
66189;SDS011;52992;52.084;5.412;2024-03-25T02:44:57;19.57;;;4.43;;
66189;SDS011;52992;52.084;5.412;2024-03-25T02:47:23;12.77;;;3.60;;
66189;SDS011;52992;52.084;5.412;2024-03-25T02:49:50;17.63;;;4.50;;
66189;SDS011;52992;52.084;5.412;2024-03-25T02:52:16;9.73;;;3.40;;
66189;SDS011;52992;52.084;5.412;2024-03-25T02:54:43;13.80;;;3.67;;
66189;SDS011;52992;52.084;5.412;2024-03-25T02:57:09;14.90;;;3.67;;
66189;SDS011;52992;52.084;5.412;2024-03-25T02:59:35;13.70;;;3.23;;
66189;SDS011;52992;52.084;5.412;2024-03-25T03:02:01;14.50;;;4.27;;
66189;SDS011;52992;52.084;5.412;2024-03-25T03:04:28;24.47;;;5.43;;
66189;SDS011;52992;52.084;5.412;2024-03-25T03:06:55;23.07;;;5.50;;
66189;SDS011;52992;52.084;5.412;2024-03-25T03:09:22;14.07;;;3.97;;
66189;SDS011;52992;52.084;5.412;2024-03-25T03:11:48;14.77;;;3.77;;
66189;SDS011;52992;52.084;5.412;2024-03-25T03:14:14;11.93;;;4.40;;
66189;SDS011;52992;52.084;5.412;2024-03-25T03:16:40;16.37;;;3.30;;
66189;SDS011;52992;52.084;5.412;2024-03-25T03:19:06;14.53;;;3.63;;
66189;SDS011;52992;52.084;5.412;2024-03-25T03:21:32;17.20;;;3.97;;
66189;SDS011;52992;52.084;5.412;2024-03-25T03:23:58;11.87;;;3.50;;
66189;SDS011;52992;52.084;5.412;2024-03-25T03:26:23;17.17;;;4.03;;
66189;SDS011;52992;52.084;5.412;2024-03-25T03:28:55;14.33;;;3.93;;
66189;SDS011;52992;52.084;5.412;2024-03-25T03:31:21;10.73;;;3.30;;
66189;SDS011;52992;52.084;5.412;2024-03-25T03:33:47;10.33;;;3.60;;
66189;SDS011;52992;52.084;5.412;2024-03-25T03:36:17;14.00;;;3.77;;
66189;SDS011;52992;52.084;5.412;2024-03-25T03:38:44;8.27;;;3.17;;
66189;SDS011;52992;52.084;5.412;2024-03-25T03:41:10;15.47;;;4.00;;
66189;SDS011;52992;52.084;5.412;2024-03-25T03:43:36;13.20;;;4.07;;
66189;SDS011;52992;52.084;5.412;2024-03-25T03:46:03;16.07;;;3.60;;
66189;SDS011;52992;52.084;5.412;2024-03-25T03:48:29;11.40;;;3.67;;
66189;SDS011;52992;52.084;5.412;2024-03-25T03:50:56;9.50;;;3.50;;
66189;SDS011;52992;52.084;5.412;2024-03-25T03:53:22;17.80;;;4.13;;
66189;SDS011;52992;52.084;5.412;2024-03-25T03:55:58;17.57;;;3.60;;
66189;SDS011;52992;52.084;5.412;2024-03-25T03:58:30;11.47;;;3.47;;
66189;SDS011;52992;52.084;5.412;2024-03-25T04:00:57;15.20;;;4.27;;
66189;SDS011;52992;52.084;5.412;2024-03-25T04:03:23;14.47;;;4.10;;
66189;SDS011;52992;52.084;5.412;2024-03-25T04:05:49;8.67;;;3.13;;
66189;SDS011;52992;52.084;5.412;2024-03-25T04:08:15;9.20;;;3.70;;
66189;SDS011;52992;52.084;5.412;2024-03-25T04:10:43;8.80;;;3.40;;
66189;SDS011;52992;52.084;5.412;2024-03-25T04:13:10;14.30;;;4.00;;
66189;SDS011;52992;52.084;5.412;2024-03-25T04:15:38;16.03;;;3.70;;
66189;SDS011;52992;52.084;5.412;2024-03-25T04:18:05;14.87;;;3.70;;
66189;SDS011;52992;52.084;5.412;2024-03-25T04:20:38;13.73;;;3.40;;
66189;SDS011;52992;52.084;5.412;2024-03-25T04:23:04;9.07;;;3.30;;
66189;SDS011;52992;52.084;5.412;2024-03-25T04:25:34;9.10;;;3.40;;
66189;SDS011;52992;52.084;5.412;2024-03-25T04:28:03;10.67;;;3.30;;
66189;SDS011;52992;52.084;5.412;2024-03-25T04:30:29;8.97;;;3.13;;
66189;SDS011;52992;52.084;5.412;2024-03-25T04:32:55;7.27;;;2.90;;
66189;SDS011;52992;52.084;5.412;2024-03-25T04:35:21;11.00;;;3.30;;
66189;SDS011;52992;52.084;5.412;2024-03-25T04:37:47;10.43;;;2.90;;
66189;SDS011;52992;52.084;5.412;2024-03-25T04:40:13;11.17;;;4.00;;
66189;SDS011;52992;52.084;5.412;2024-03-25T04:42:40;10.53;;;3.70;;
66189;SDS011;52992;52.084;5.412;2024-03-25T04:45:06;11.30;;;3.50;;
66189;SDS011;52992;52.084;5.412;2024-03-25T04:47:32;11.63;;;3.83;;
66189;SDS011;52992;52.084;5.412;2024-03-25T04:49:58;9.67;;;3.83;;
66189;SDS011;52992;52.084;5.412;2024-03-25T04:52:24;14.20;;;3.97;;
66189;SDS011;52992;52.084;5.412;2024-03-25T04:54:51;13.17;;;3.53;;
66189;SDS011;52992;52.084;5.412;2024-03-25T04:57:17;6.50;;;3.40;;
66189;SDS011;52992;52.084;5.412;2024-03-25T04:59:44;4.60;;;2.67;;
66189;SDS011;52992;52.084;5.412;2024-03-25T05:02:10;14.90;;;3.20;;
66189;SDS011;52992;52.084;5.412;2024-03-25T05:04:36;11.43;;;3.30;;
66189;SDS011;52992;52.084;5.412;2024-03-25T05:07:01;14.03;;;3.70;;
66189;SDS011;52992;52.084;5.412;2024-03-25T05:09:27;9.57;;;3.67;;
66189;SDS011;52992;52.084;5.412;2024-03-25T05:11:53;12.40;;;3.80;;
66189;SDS011;52992;52.084;5.412;2024-03-25T05:14:19;13.30;;;3.50;;
66189;SDS011;52992;52.084;5.412;2024-03-25T05:16:45;8.50;;;3.53;;
66189;SDS011;52992;52.084;5.412;2024-03-25T05:19:11;8.77;;;3.17;;
66189;SDS011;52992;52.084;5.412;2024-03-25T05:21:37;10.07;;;3.43;;
66189;SDS011;52992;52.084;5.412;2024-03-25T05:24:03;16.27;;;4.60;;
66189;SDS011;52992;52.084;5.412;2024-03-25T05:26:29;16.43;;;3.40;;
66189;SDS011;52992;52.084;5.412;2024-03-25T05:28:55;11.37;;;3.90;;
66189;SDS011;52992;52.084;5.412;2024-03-25T05:31:22;12.23;;;4.73;;
66189;SDS011;52992;52.084;5.412;2024-03-25T05:33:49;18.13;;;4.00;;
66189;SDS011;52992;52.084;5.412;2024-03-25T05:36:15;16.60;;;4.30;;
66189;SDS011;52992;52.084;5.412;2024-03-25T05:38:42;7.50;;;4.17;;
66189;SDS011;52992;52.084;5.412;2024-03-25T05:41:09;13.70;;;5.17;;
66189;SDS011;52992;52.084;5.412;2024-03-25T05:43:35;16.30;;;5.10;;
66189;SDS011;52992;52.084;5.412;2024-03-25T05:46:01;16.70;;;4.53;;
66189;SDS011;52992;52.084;5.412;2024-03-25T05:48:27;16.60;;;6.33;;
66189;SDS011;52992;52.084;5.412;2024-03-25T05:51:02;16.80;;;5.53;;
66189;SDS011;52992;52.084;5.412;2024-03-25T05:53:33;14.07;;;6.37;;
66189;SDS011;52992;52.084;5.412;2024-03-25T05:55:59;13.90;;;6.70;;
66189;SDS011;52992;52.084;5.412;2024-03-25T05:58:25;15.13;;;6.97;;
66189;SDS011;52992;52.084;5.412;2024-03-25T06:00:52;17.73;;;6.93;;
66189;SDS011;52992;52.084;5.412;2024-03-25T06:03:19;17.83;;;7.77;;
66189;SDS011;52992;52.084;5.412;2024-03-25T06:05:45;18.73;;;6.70;;
66189;SDS011;52992;52.084;5.412;2024-03-25T06:08:11;19.40;;;5.83;;
66189;SDS011;52992;52.084;5.412;2024-03-25T06:10:52;14.63;;;6.10;;
66189;SDS011;52992;52.084;5.412;2024-03-25T06:13:18;15.40;;;6.17;;
66189;SDS011;52992;52.084;5.412;2024-03-25T06:15:45;19.97;;;6.30;;
66189;SDS011;52992;52.084;5.412;2024-03-25T06:18:11;24.77;;;5.47;;
66189;SDS011;52992;52.084;5.412;2024-03-25T06:20:37;16.57;;;6.13;;
66189;SDS011;52992;52.084;5.412;2024-03-25T06:23:04;16.80;;;5.80;;
66189;SDS011;52992;52.084;5.412;2024-03-25T06:25:30;15.57;;;6.23;;
66189;SDS011;52992;52.084;5.412;2024-03-25T06:27:56;21.83;;;7.67;;
66189;SDS011;52992;52.084;5.412;2024-03-25T06:30:22;14.33;;;7.90;;
66189;SDS011;52992;52.084;5.412;2024-03-25T06:33:06;17.07;;;6.13;;
66189;SDS011;52992;52.084;5.412;2024-03-25T06:35:50;13.87;;;5.17;;
66189;SDS011;52992;52.084;5.412;2024-03-25T06:38:17;17.93;;;5.40;;
66189;SDS011;52992;52.084;5.412;2024-03-25T06:40:44;16.77;;;5.67;;
66189;SDS011;52992;52.084;5.412;2024-03-25T06:43:11;15.47;;;5.20;;
66189;SDS011;52992;52.084;5.412;2024-03-25T06:45:37;17.03;;;5.50;;
66189;SDS011;52992;52.084;5.412;2024-03-25T06:48:03;19.30;;;7.10;;
66189;SDS011;52992;52.084;5.412;2024-03-25T06:50:29;25.07;;;10.03;;
66189;SDS011;52992;52.084;5.412;2024-03-25T06:52:55;18.03;;;9.13;;
66189;SDS011;52992;52.084;5.412;2024-03-25T06:55:21;16.23;;;8.53;;
66189;SDS011;52992;52.084;5.412;2024-03-25T06:57:52;23.03;;;7.47;;
66189;SDS011;52992;52.084;5.412;2024-03-25T07:00:19;21.40;;;6.67;;
66189;SDS011;52992;52.084;5.412;2024-03-25T07:02:47;13.93;;;6.13;;
66189;SDS011;52992;52.084;5.412;2024-03-25T07:05:14;13.13;;;5.70;;
66189;SDS011;52992;52.084;5.412;2024-03-25T07:07:40;17.83;;;5.43;;
66189;SDS011;52992;52.084;5.412;2024-03-25T07:10:06;21.80;;;5.53;;
66189;SDS011;52992;52.084;5.412;2024-03-25T07:12:32;17.37;;;5.77;;
66189;SDS011;52992;52.084;5.412;2024-03-25T07:14:58;14.73;;;5.63;;
66189;SDS011;52992;52.084;5.412;2024-03-25T07:17:24;14.63;;;6.37;;
66189;SDS011;52992;52.084;5.412;2024-03-25T07:19:51;17.63;;;5.67;;
66189;SDS011;52992;52.084;5.412;2024-03-25T07:22:17;15.63;;;5.77;;
66189;SDS011;52992;52.084;5.412;2024-03-25T07:24:43;25.83;;;9.07;;
66189;SDS011;52992;52.084;5.412;2024-03-25T07:27:10;34.37;;;8.00;;
66189;SDS011;52992;52.084;5.412;2024-03-25T07:29:36;28.47;;;7.53;;
66189;SDS011;52992;52.084;5.412;2024-03-25T07:32:03;29.27;;;8.37;;
66189;SDS011;52992;52.084;5.412;2024-03-25T07:34:29;18.63;;;6.43;;
66189;SDS011;52992;52.084;5.412;2024-03-25T07:36:55;22.13;;;6.53;;
66189;SDS011;52992;52.084;5.412;2024-03-25T07:39:21;19.27;;;6.47;;
66189;SDS011;52992;52.084;5.412;2024-03-25T07:41:49;16.30;;;5.93;;
66189;SDS011;52992;52.084;5.412;2024-03-25T07:44:15;22.43;;;5.47;;
66189;SDS011;52992;52.084;5.412;2024-03-25T07:46:41;16.10;;;5.37;;
66189;SDS011;52992;52.084;5.412;2024-03-25T07:49:07;22.73;;;6.80;;
66189;SDS011;52992;52.084;5.412;2024-03-25T07:51:33;21.97;;;6.33;;
66189;SDS011;52992;52.084;5.412;2024-03-25T07:54:01;14.63;;;5.17;;
66189;SDS011;52992;52.084;5.412;2024-03-25T07:56:28;17.20;;;4.30;;
66189;SDS011;52992;52.084;5.412;2024-03-25T07:58:56;11.10;;;3.97;;
66189;SDS011;52992;52.084;5.412;2024-03-25T08:01:25;19.27;;;4.67;;
66189;SDS011;52992;52.084;5.412;2024-03-25T08:03:51;13.80;;;4.50;;
66189;SDS011;52992;52.084;5.412;2024-03-25T08:06:17;19.00;;;4.47;;
66189;SDS011;52992;52.084;5.412;2024-03-25T08:08:42;10.63;;;4.63;;
66189;SDS011;52992;52.084;5.412;2024-03-25T08:11:08;15.80;;;4.13;;
66189;SDS011;52992;52.084;5.412;2024-03-25T08:13:34;13.63;;;4.83;;
66189;SDS011;52992;52.084;5.412;2024-03-25T08:16:00;16.23;;;4.77;;
66189;SDS011;52992;52.084;5.412;2024-03-25T08:18:26;15.33;;;4.60;;
66189;SDS011;52992;52.084;5.412;2024-03-25T08:20:52;10.60;;;3.90;;
66189;SDS011;52992;52.084;5.412;2024-03-25T08:23:18;13.53;;;4.30;;
66189;SDS011;52992;52.084;5.412;2024-03-25T08:25:44;19.43;;;4.20;;
66189;SDS011;52992;52.084;5.412;2024-03-25T08:28:10;19.97;;;4.63;;
66189;SDS011;52992;52.084;5.412;2024-03-25T08:30:36;12.83;;;3.90;;
66189;SDS011;52992;52.084;5.412;2024-03-25T08:33:02;14.50;;;4.57;;
66189;SDS011;52992;52.084;5.412;2024-03-25T08:35:28;20.23;;;4.97;;
66189;SDS011;52992;52.084;5.412;2024-03-25T08:37:54;13.77;;;3.83;;
66189;SDS011;52992;52.084;5.412;2024-03-25T08:40:20;8.47;;;3.87;;
66189;SDS011;52992;52.084;5.412;2024-03-25T08:42:46;10.80;;;3.97;;
66189;SDS011;52992;52.084;5.412;2024-03-25T08:45:12;16.23;;;3.67;;
66189;SDS011;52992;52.084;5.412;2024-03-25T08:47:37;15.27;;;4.57;;
66189;SDS011;52992;52.084;5.412;2024-03-25T08:50:06;15.17;;;4.77;;
66189;SDS011;52992;52.084;5.412;2024-03-25T08:52:32;11.70;;;3.83;;
66189;SDS011;52992;52.084;5.412;2024-03-25T08:54:58;17.57;;;4.13;;
66189;SDS011;52992;52.084;5.412;2024-03-25T08:57:23;12.90;;;4.63;;
66189;SDS011;52992;52.084;5.412;2024-03-25T08:59:49;16.90;;;5.60;;
66189;SDS011;52992;52.084;5.412;2024-03-25T09:02:15;12.07;;;4.07;;
66189;SDS011;52992;52.084;5.412;2024-03-25T09:04:42;12.77;;;4.57;;
66189;SDS011;52992;52.084;5.412;2024-03-25T09:07:08;12.10;;;4.00;;
66189;SDS011;52992;52.084;5.412;2024-03-25T09:09:34;12.60;;;4.20;;
66189;SDS011;52992;52.084;5.412;2024-03-25T09:12:18;12.50;;;4.70;;
66189;SDS011;52992;52.084;5.412;2024-03-25T09:14:44;14.10;;;3.83;;
66189;SDS011;52992;52.084;5.412;2024-03-25T09:17:11;13.00;;;4.40;;
66189;SDS011;52992;52.084;5.412;2024-03-25T09:19:38;12.97;;;4.17;;
66189;SDS011;52992;52.084;5.412;2024-03-25T09:22:04;12.23;;;4.50;;
66189;SDS011;52992;52.084;5.412;2024-03-25T09:24:29;8.80;;;3.60;;
66189;SDS011;52992;52.084;5.412;2024-03-25T09:26:57;15.07;;;4.50;;
66189;SDS011;52992;52.084;5.412;2024-03-25T09:29:22;13.23;;;4.23;;
66189;SDS011;52992;52.084;5.412;2024-03-25T09:31:48;15.83;;;7.00;;
66189;SDS011;52992;52.084;5.412;2024-03-25T09:34:14;12.80;;;5.50;;
66189;SDS011;52992;52.084;5.412;2024-03-25T09:36:40;14.20;;;4.27;;
66189;SDS011;52992;52.084;5.412;2024-03-25T09:39:06;11.03;;;3.90;;
66189;SDS011;52992;52.084;5.412;2024-03-25T09:41:33;15.03;;;4.37;;
66189;SDS011;52992;52.084;5.412;2024-03-25T09:44:02;9.40;;;3.60;;
66189;SDS011;52992;52.084;5.412;2024-03-25T09:46:31;12.17;;;3.77;;
66189;SDS011;52992;52.084;5.412;2024-03-25T09:48:58;18.37;;;3.70;;
66189;SDS011;52992;52.084;5.412;2024-03-25T09:51:25;11.50;;;4.20;;
66189;SDS011;52992;52.084;5.412;2024-03-25T09:53:51;10.63;;;3.57;;
66189;SDS011;52992;52.084;5.412;2024-03-25T09:56:17;9.77;;;3.60;;
66189;SDS011;52992;52.084;5.412;2024-03-25T09:58:43;14.20;;;3.50;;
66189;SDS011;52992;52.084;5.412;2024-03-25T10:01:09;10.57;;;4.20;;
66189;SDS011;52992;52.084;5.412;2024-03-25T10:03:35;8.90;;;4.10;;
66189;SDS011;52992;52.084;5.412;2024-03-25T10:06:01;10.13;;;4.77;;
66189;SDS011;52992;52.084;5.412;2024-03-25T10:08:28;6.93;;;4.07;;
66189;SDS011;52992;52.084;5.412;2024-03-25T10:10:55;9.10;;;4.13;;
66189;SDS011;52992;52.084;5.412;2024-03-25T10:13:22;13.57;;;3.70;;
66189;SDS011;52992;52.084;5.412;2024-03-25T10:15:48;10.37;;;3.60;;
66189;SDS011;52992;52.084;5.412;2024-03-25T10:18:15;11.43;;;4.00;;
66189;SDS011;52992;52.084;5.412;2024-03-25T10:20:52;12.87;;;3.87;;
66189;SDS011;52992;52.084;5.412;2024-03-25T10:23:22;9.60;;;4.07;;
66189;SDS011;52992;52.084;5.412;2024-03-25T10:25:52;9.77;;;3.97;;
66189;SDS011;52992;52.084;5.412;2024-03-25T10:28:19;14.03;;;4.43;;
66189;SDS011;52992;52.084;5.412;2024-03-25T10:30:45;13.93;;;4.00;;
66189;SDS011;52992;52.084;5.412;2024-03-25T10:33:11;12.67;;;4.40;;
66189;SDS011;52992;52.084;5.412;2024-03-25T10:35:37;12.80;;;4.93;;
66189;SDS011;52992;52.084;5.412;2024-03-25T10:38:09;8.20;;;4.67;;
66189;SDS011;52992;52.084;5.412;2024-03-25T10:40:36;14.70;;;5.10;;
66189;SDS011;52992;52.084;5.412;2024-03-25T10:43:04;11.63;;;5.77;;
66189;SDS011;52992;52.084;5.412;2024-03-25T10:45:40;9.93;;;4.90;;
66189;SDS011;52992;52.084;5.412;2024-03-25T10:48:12;12.53;;;4.60;;
66189;SDS011;52992;52.084;5.412;2024-03-25T10:50:43;11.40;;;4.17;;
66189;SDS011;52992;52.084;5.412;2024-03-25T10:53:12;11.73;;;4.53;;
66189;SDS011;52992;52.084;5.412;2024-03-25T10:55:42;13.53;;;4.40;;
66189;SDS011;52992;52.084;5.412;2024-03-25T10:58:13;10.97;;;5.27;;
66189;SDS011;52992;52.084;5.412;2024-03-25T11:00:42;13.63;;;4.87;;
66189;SDS011;52992;52.084;5.412;2024-03-25T11:03:09;10.67;;;5.00;;
66189;SDS011;52992;52.084;5.412;2024-03-25T11:05:36;7.87;;;4.90;;
66189;SDS011;52992;52.084;5.412;2024-03-25T11:08:12;8.03;;;4.77;;
66189;SDS011;52992;52.084;5.412;2024-03-25T11:10:43;11.57;;;4.90;;
66189;SDS011;52992;52.084;5.412;2024-03-25T11:13:18;10.80;;;5.10;;
66189;SDS011;52992;52.084;5.412;2024-03-25T11:15:45;10.63;;;4.67;;
66189;SDS011;52992;52.084;5.412;2024-03-25T11:18:13;9.33;;;5.03;;
66189;SDS011;52992;52.084;5.412;2024-03-25T11:20:41;10.40;;;4.80;;
66189;SDS011;52992;52.084;5.412;2024-03-25T11:23:13;8.00;;;4.00;;
66189;SDS011;52992;52.084;5.412;2024-03-25T11:25:40;9.57;;;4.23;;
66189;SDS011;52992;52.084;5.412;2024-03-25T11:28:08;10.47;;;4.90;;
66189;SDS011;52992;52.084;5.412;2024-03-25T11:30:34;11.03;;;4.30;;
66189;SDS011;52992;52.084;5.412;2024-03-25T11:33:02;16.00;;;5.20;;
66189;SDS011;52992;52.084;5.412;2024-03-25T11:35:40;9.63;;;4.73;;
66189;SDS011;52992;52.084;5.412;2024-03-25T11:38:06;9.57;;;5.07;;
66189;SDS011;52992;52.084;5.412;2024-03-25T11:40:32;9.40;;;4.67;;
66189;SDS011;52992;52.084;5.412;2024-03-25T11:42:58;8.40;;;4.10;;
66189;SDS011;52992;52.084;5.412;2024-03-25T11:45:24;10.53;;;4.70;;
66189;SDS011;52992;52.084;5.412;2024-03-25T11:47:50;10.23;;;5.00;;
66189;SDS011;52992;52.084;5.412;2024-03-25T11:50:17;10.33;;;4.83;;
66189;SDS011;52992;52.084;5.412;2024-03-25T11:52:45;10.87;;;5.57;;
66189;SDS011;52992;52.084;5.412;2024-03-25T11:55:15;10.53;;;5.83;;
66189;SDS011;52992;52.084;5.412;2024-03-25T11:57:54;8.27;;;5.40;;
66189;SDS011;52992;52.084;5.412;2024-03-25T12:00:21;8.90;;;5.10;;
66189;SDS011;52992;52.084;5.412;2024-03-25T12:02:48;8.23;;;5.27;;
66189;SDS011;52992;52.084;5.412;2024-03-25T12:05:15;8.63;;;5.80;;
66189;SDS011;52992;52.084;5.412;2024-03-25T12:07:41;9.37;;;4.63;;
66189;SDS011;52992;52.084;5.412;2024-03-25T12:10:07;10.70;;;5.17;;
66189;SDS011;52992;52.084;5.412;2024-03-25T12:12:52;7.20;;;4.13;;
66189;SDS011;52992;52.084;5.412;2024-03-25T12:15:22;8.50;;;3.93;;
66189;SDS011;52992;52.084;5.412;2024-03-25T12:17:48;10.07;;;4.40;;
66189;SDS011;52992;52.084;5.412;2024-03-25T12:20:16;11.17;;;4.83;;
66189;SDS011;52992;52.084;5.412;2024-03-25T12:22:43;7.43;;;4.40;;
66189;SDS011;52992;52.084;5.412;2024-03-25T12:25:10;7.17;;;4.60;;
66189;SDS011;52992;52.084;5.412;2024-03-25T12:27:36;7.87;;;4.23;;
66189;SDS011;52992;52.084;5.412;2024-03-25T12:30:04;5.40;;;3.47;;
66189;SDS011;52992;52.084;5.412;2024-03-25T12:35:12;5.90;;;3.30;;
66189;SDS011;52992;52.084;5.412;2024-03-25T12:37:40;6.60;;;3.07;;
66189;SDS011;52992;52.084;5.412;2024-03-25T12:40:07;6.47;;;3.00;;
66189;SDS011;52992;52.084;5.412;2024-03-25T12:42:35;4.90;;;2.73;;
66189;SDS011;52992;52.084;5.412;2024-03-25T12:45:02;7.77;;;2.87;;
66189;SDS011;52992;52.084;5.412;2024-03-25T12:47:28;6.40;;;2.80;;
66189;SDS011;52992;52.084;5.412;2024-03-25T12:49:55;5.27;;;2.80;;
66189;SDS011;52992;52.084;5.412;2024-03-25T12:52:21;4.77;;;2.67;;
66189;SDS011;52992;52.084;5.412;2024-03-25T12:54:47;4.77;;;3.00;;
66189;SDS011;52992;52.084;5.412;2024-03-25T12:57:13;5.07;;;2.93;;
66189;SDS011;52992;52.084;5.412;2024-03-25T12:59:39;5.97;;;2.90;;
66189;SDS011;52992;52.084;5.412;2024-03-25T13:02:06;5.70;;;2.97;;
66189;SDS011;52992;52.084;5.412;2024-03-25T13:04:36;5.57;;;3.03;;
66189;SDS011;52992;52.084;5.412;2024-03-25T13:07:06;6.60;;;2.97;;
66189;SDS011;52992;52.084;5.412;2024-03-25T13:09:32;6.40;;;3.00;;
66189;SDS011;52992;52.084;5.412;2024-03-25T13:11:58;4.63;;;2.60;;
66189;SDS011;52992;52.084;5.412;2024-03-25T13:14:25;4.53;;;2.97;;
66189;SDS011;52992;52.084;5.412;2024-03-25T13:16:51;5.97;;;3.10;;
66189;SDS011;52992;52.084;5.412;2024-03-25T13:19:17;7.30;;;3.30;;
66189;SDS011;52992;52.084;5.412;2024-03-25T13:21:43;6.83;;;3.00;;
66189;SDS011;52992;52.084;5.412;2024-03-25T13:24:09;6.80;;;3.33;;
66189;SDS011;52992;52.084;5.412;2024-03-25T13:26:35;5.43;;;2.60;;
66189;SDS011;52992;52.084;5.412;2024-03-25T13:29:01;4.60;;;2.70;;
66189;SDS011;52992;52.084;5.412;2024-03-25T13:31:27;6.87;;;3.20;;
66189;SDS011;52992;52.084;5.412;2024-03-25T13:33:53;6.27;;;3.00;;
66189;SDS011;52992;52.084;5.412;2024-03-25T13:36:20;3.43;;;3.00;;
66189;SDS011;52992;52.084;5.412;2024-03-25T13:38:45;7.63;;;3.10;;
66189;SDS011;52992;52.084;5.412;2024-03-25T13:41:17;6.90;;;3.10;;
66189;SDS011;52992;52.084;5.412;2024-03-25T13:43:47;7.00;;;3.23;;
66189;SDS011;52992;52.084;5.412;2024-03-25T13:46:13;8.77;;;3.07;;
66189;SDS011;52992;52.084;5.412;2024-03-25T13:48:39;5.70;;;3.40;;
66189;SDS011;52992;52.084;5.412;2024-03-25T13:51:05;7.53;;;3.27;;
66189;SDS011;52992;52.084;5.412;2024-03-25T13:53:31;6.53;;;2.97;;
66189;SDS011;52992;52.084;5.412;2024-03-25T13:55:57;7.20;;;3.30;;
66189;SDS011;52992;52.084;5.412;2024-03-25T13:58:25;8.90;;;3.20;;
66189;SDS011;52992;52.084;5.412;2024-03-25T14:00:51;5.10;;;3.03;;
66189;SDS011;52992;52.084;5.412;2024-03-25T14:03:17;3.53;;;2.70;;
66189;SDS011;52992;52.084;5.412;2024-03-25T14:05:44;4.93;;;2.73;;
66189;SDS011;52992;52.084;5.412;2024-03-25T14:08:09;6.60;;;2.40;;
66189;SDS011;52992;52.084;5.412;2024-03-25T14:10:35;3.00;;;2.30;;
66189;SDS011;52992;52.084;5.412;2024-03-25T14:13:02;3.57;;;2.13;;
66189;SDS011;52992;52.084;5.412;2024-03-25T14:15:28;4.93;;;2.30;;
66189;SDS011;52992;52.084;5.412;2024-03-25T14:17:55;3.30;;;2.20;;
66189;SDS011;52992;52.084;5.412;2024-03-25T14:20:21;2.47;;;1.90;;
66189;SDS011;52992;52.084;5.412;2024-03-25T14:22:47;4.77;;;2.23;;
66189;SDS011;52992;52.084;5.412;2024-03-25T14:25:13;4.50;;;2.47;;
66189;SDS011;52992;52.084;5.412;2024-03-25T14:27:40;4.80;;;2.97;;
66189;SDS011;52992;52.084;5.412;2024-03-25T14:30:06;6.77;;;3.30;;
66189;SDS011;52992;52.084;5.412;2024-03-25T14:32:35;3.63;;;2.97;;
66189;SDS011;52992;52.084;5.412;2024-03-25T14:35:02;6.53;;;3.47;;
66189;SDS011;52992;52.084;5.412;2024-03-25T14:37:27;6.23;;;3.40;;
66189;SDS011;52992;52.084;5.412;2024-03-25T14:39:53;5.90;;;3.00;;